createdAt,value
2022-11-10T00:01:38.649Z,11.80
2022-11-10T00:04:24.941Z,11.70
2022-11-10T00:07:10.493Z,11.70
2022-11-10T00:09:56.008Z,11.70
2022-11-10T00:12:42.076Z,11.60
2022-11-10T00:15:46.928Z,11.60
2022-11-10T00:18:32.745Z,11.60
2022-11-10T00:21:18.471Z,11.50
2022-11-10T00:24:05.023Z,11.60
2022-11-10T00:26:51.153Z,11.50
2022-11-10T00:29:37.040Z,11.40
2022-11-10T00:32:22.744Z,11.40
2022-11-10T00:35:09.022Z,11.40
2022-11-10T00:37:55.027Z,11.40
2022-11-10T00:40:41.365Z,11.40
2022-11-10T00:43:28.105Z,11.50
2022-11-10T00:46:14.651Z,11.40
2022-11-10T00:49:00.459Z,11.50
2022-11-10T00:51:46.595Z,11.40
2022-11-10T00:54:32.709Z,11.50
2022-11-10T00:57:18.668Z,11.50
2022-11-10T01:00:04.623Z,11.40
2022-11-10T01:02:50.402Z,11.40
2022-11-10T01:05:37.695Z,11.40
2022-11-10T01:08:23.849Z,11.40
2022-11-10T01:11:12.751Z,11.50
2022-11-10T01:13:58.637Z,11.40
2022-11-10T01:16:44.588Z,11.50
2022-11-10T01:19:30.253Z,11.50
2022-11-10T01:22:15.883Z,11.50
2022-11-10T01:25:01.981Z,11.40
2022-11-10T01:27:47.842Z,11.40
2022-11-10T01:30:34.053Z,11.40
2022-11-10T01:33:20.686Z,11.30
2022-11-10T01:36:08.519Z,11.30
2022-11-10T01:38:54.380Z,11.30
2022-11-10T01:41:40.139Z,11.20
2022-11-10T01:44:26.469Z,11.20
2022-11-10T01:47:12.669Z,11.10
2022-11-10T01:49:58.646Z,11.10
2022-11-10T01:52:46.944Z,11.10
2022-11-10T01:55:34.394Z,11.20
2022-11-10T01:58:22.869Z,11.20
2022-11-10T02:01:09.348Z,11.30
2022-11-10T02:04:00.218Z,11.30
2022-11-10T02:06:48.035Z,11.40
2022-11-10T02:09:34.481Z,11.40
2022-11-10T02:12:37.321Z,11.40
2022-11-10T02:15:25.259Z,11.40
2022-11-10T02:18:11.139Z,11.30
2022-11-10T02:20:57.353Z,11.30
2022-11-10T02:23:44.081Z,11.30
2022-11-10T02:26:30.278Z,11.30
2022-11-10T02:29:16.127Z,11.30
2022-11-10T02:32:02.289Z,11.30
2022-11-10T02:34:48.821Z,11.40
2022-11-10T02:37:34.768Z,11.40
2022-11-10T02:40:20.783Z,11.40
2022-11-10T02:43:08.856Z,11.40
2022-11-10T02:45:54.769Z,11.40
2022-11-10T02:48:40.652Z,11.50
2022-11-10T02:51:26.852Z,11.50
2022-11-10T02:54:13.002Z,11.50
2022-11-10T02:56:58.854Z,11.50
2022-11-10T02:59:44.375Z,11.50
2022-11-10T03:03:21.226Z,11.50
2022-11-10T03:06:07.484Z,11.50
2022-11-10T03:08:53.219Z,11.40
2022-11-10T03:11:38.760Z,11.40
2022-11-10T03:14:24.784Z,11.30
2022-11-10T03:17:10.527Z,11.20
2022-11-10T03:19:56.715Z,11.10
2022-11-10T03:22:42.959Z,11.10
2022-11-10T03:25:28.914Z,11.10
2022-11-10T03:28:14.836Z,11.00
2022-11-10T03:31:00.886Z,11.00
2022-11-10T03:33:46.470Z,10.90
2022-11-10T03:36:32.031Z,10.90
2022-11-10T03:39:18.045Z,10.90
2022-11-10T03:42:03.708Z,10.90
2022-11-10T03:44:49.394Z,10.90
2022-11-10T03:47:35.256Z,10.90
2022-11-10T03:50:20.930Z,10.90
2022-11-10T03:53:06.814Z,10.90
2022-11-10T03:55:52.403Z,10.90
2022-11-10T03:58:38.646Z,10.80
2022-11-10T04:01:24.420Z,10.80
2022-11-10T04:04:31.162Z,10.70
2022-11-10T04:07:36.050Z,10.60
2022-11-10T04:10:21.757Z,10.70
2022-11-10T04:13:26.389Z,10.70
2022-11-10T04:16:12.451Z,10.60
2022-11-10T04:18:58.092Z,10.60
2022-11-10T04:21:44.480Z,10.60
2022-11-10T04:24:30.658Z,10.70
2022-11-10T04:27:16.443Z,10.60
2022-11-10T04:30:02.489Z,10.70
2022-11-10T04:32:48.201Z,10.70
2022-11-10T04:35:34.290Z,10.60
2022-11-10T04:38:19.902Z,10.70
2022-11-10T04:41:06.916Z,10.60
2022-11-10T04:43:52.910Z,10.50
2022-11-10T04:46:39.560Z,10.60
2022-11-10T04:49:25.357Z,10.50
2022-11-10T04:52:11.229Z,10.40
2022-11-10T04:54:57.295Z,10.40
2022-11-10T04:57:44.433Z,10.30
2022-11-10T05:00:30.242Z,10.40
2022-11-10T05:03:16.879Z,10.40
2022-11-10T05:06:02.966Z,10.50
2022-11-10T05:08:49.337Z,10.50
2022-11-10T05:11:35.359Z,10.50
2022-11-10T05:14:21.622Z,10.50
2022-11-10T05:17:07.850Z,10.50
2022-11-10T05:19:54.002Z,10.50
2022-11-10T05:22:40.868Z,10.50
2022-11-10T05:25:29.021Z,10.50
2022-11-10T05:28:16.370Z,10.50
2022-11-10T05:31:02.976Z,10.50
2022-11-10T05:33:48.692Z,10.60
2022-11-10T05:36:34.481Z,10.50
2022-11-10T05:39:20.352Z,10.60
2022-11-10T05:42:06.142Z,10.50
2022-11-10T05:44:52.179Z,10.60
2022-11-10T05:47:38.765Z,10.50
2022-11-10T05:50:25.069Z,10.60
2022-11-10T05:53:11.287Z,10.60
2022-11-10T05:55:56.968Z,10.60
2022-11-10T05:58:43.270Z,10.70
2022-11-10T06:01:29.241Z,10.80
2022-11-10T06:04:15.097Z,10.70
2022-11-10T06:07:00.896Z,10.70
2022-11-10T06:09:48.606Z,10.80
2022-11-10T06:12:34.573Z,10.90
2022-11-10T06:15:21.110Z,10.90
2022-11-10T06:18:06.754Z,10.90
2022-11-10T06:20:53.092Z,11.00
2022-11-10T06:23:44.197Z,11.00
2022-11-10T06:26:37.952Z,11.00
2022-11-10T06:29:27.123Z,11.00
2022-11-10T06:32:13.130Z,11.00
2022-11-10T06:35:00.702Z,11.00
2022-11-10T06:37:56.429Z,11.10
2022-11-10T06:40:42.523Z,11.10
2022-11-10T06:43:28.602Z,11.20
2022-11-10T06:46:14.345Z,11.20
2022-11-10T06:49:01.292Z,11.30
2022-11-10T06:51:46.939Z,11.30
2022-11-10T06:54:32.812Z,11.40
2022-11-10T06:57:18.952Z,11.50
2022-11-10T07:00:05.109Z,11.50
2022-11-10T07:03:07.520Z,11.60
2022-11-10T07:05:53.580Z,11.90
2022-11-10T07:08:39.189Z,12.50
2022-11-10T07:11:25.207Z,13.10
2022-11-10T07:14:11.094Z,13.70
2022-11-10T07:16:57.330Z,14.70
2022-11-10T07:19:43.065Z,15.60
2022-11-10T07:22:29.169Z,15.70
2022-11-10T07:25:14.959Z,15.00
2022-11-10T07:28:02.001Z,14.60
2022-11-10T07:30:47.613Z,13.50
2022-11-10T07:33:33.693Z,13.10
2022-11-10T07:36:19.293Z,12.90
2022-11-10T07:39:06.162Z,12.50
2022-11-10T07:41:53.042Z,12.30
2022-11-10T07:44:39.824Z,12.20
2022-11-10T07:47:30.386Z,12.20
2022-11-10T07:50:17.755Z,13.10
2022-11-10T07:53:03.709Z,13.10
2022-11-10T07:55:49.939Z,13.30
2022-11-10T07:58:35.890Z,14.70
2022-11-10T08:01:21.689Z,15.70
2022-11-10T08:04:08.240Z,15.60
2022-11-10T08:06:54.855Z,15.80
2022-11-10T08:09:42.521Z,15.40
2022-11-10T08:12:32.685Z,15.20
2022-11-10T08:15:19.720Z,14.90
2022-11-10T08:18:12.822Z,14.40
2022-11-10T08:21:04.577Z,14.30
2022-11-10T08:23:56.075Z,15.40
2022-11-10T08:26:42.552Z,15.40
2022-11-10T08:29:32.559Z,14.60
2022-11-10T08:32:19.706Z,14.60
2022-11-10T08:35:08.141Z,14.40
2022-11-10T08:37:55.574Z,14.40
2022-11-10T08:40:42.223Z,14.40
2022-11-10T08:43:37.810Z,14.50
2022-11-10T08:46:28.752Z,14.60
2022-11-10T08:49:25.971Z,15.50
2022-11-10T08:52:13.321Z,16.60
2022-11-10T08:54:59.502Z,16.70
2022-11-10T08:57:46.854Z,16.50
2022-11-10T09:00:33.549Z,16.80
2022-11-10T09:03:21.725Z,16.50
2022-11-10T09:06:08.774Z,15.90
2022-11-10T09:08:55.084Z,16.00
2022-11-10T09:11:41.686Z,17.20
2022-11-10T09:14:29.588Z,17.30
2022-11-10T09:17:16.190Z,17.60
2022-11-10T09:20:04.254Z,17.40
2022-11-10T09:22:51.151Z,17.00
2022-11-10T09:25:38.476Z,17.70
2022-11-10T09:28:24.892Z,17.40
2022-11-10T09:31:12.172Z,17.90
2022-11-10T09:34:30.244Z,18.60
2022-11-10T09:37:16.540Z,18.30
2022-11-10T09:40:03.338Z,18.50
2022-11-10T09:42:53.640Z,18.60
2022-11-10T09:46:12.223Z,18.80
2022-11-10T09:49:18.962Z,19.40
2022-11-10T09:52:05.468Z,19.00
2022-11-10T09:55:25.283Z,19.30
2022-11-10T09:58:13.112Z,19.30
2022-11-10T10:01:24.787Z,18.60
2022-11-10T10:04:20.618Z,18.30
2022-11-10T10:07:11.916Z,19.50
2022-11-10T10:10:02.232Z,21.10
2022-11-10T10:12:57.741Z,20.50
2022-11-10T10:15:52.954Z,22.10
2022-11-10T10:19:21.059Z,22.60
2022-11-10T10:22:07.533Z,23.00
2022-11-10T10:24:56.765Z,23.20
2022-11-10T10:27:45.242Z,22.80
2022-11-10T10:30:31.433Z,23.50
2022-11-10T10:33:19.438Z,22.20
2022-11-10T10:36:09.554Z,21.70
2022-11-10T10:38:57.459Z,22.40
2022-11-10T10:41:46.368Z,24.10
2022-11-10T10:44:33.309Z,24.00
2022-11-10T10:47:35.572Z,23.40
2022-11-10T10:50:23.943Z,23.70
2022-11-10T10:53:19.745Z,22.60
2022-11-10T10:56:07.739Z,21.50
2022-11-10T10:58:55.297Z,20.10
2022-11-10T11:01:43.450Z,20.90
2022-11-10T11:04:34.643Z,21.60
2022-11-10T11:07:23.256Z,21.70
2022-11-10T11:10:20.607Z,21.40
2022-11-10T11:13:21.787Z,21.10
2022-11-10T11:16:09.979Z,21.20
2022-11-10T11:18:55.938Z,22.20
2022-11-10T11:22:00.687Z,22.90
2022-11-10T11:24:52.743Z,23.00
2022-11-10T11:28:03.722Z,23.20
2022-11-10T11:31:00.566Z,25.10
2022-11-10T11:33:49.722Z,25.30
2022-11-10T11:36:42.527Z,25.70
2022-11-10T11:39:47.117Z,24.70
2022-11-10T11:42:40.184Z,26.20
2022-11-10T11:45:29.862Z,24.90
2022-11-10T11:48:22.707Z,25.40
2022-11-10T11:51:16.309Z,25.20
2022-11-10T11:54:13.848Z,25.50
2022-11-10T11:57:10.090Z,25.00
2022-11-10T12:00:11.719Z,26.00
2022-11-10T12:02:58.095Z,26.30
2022-11-10T12:05:56.806Z,26.50
2022-11-10T12:08:46.499Z,25.90
2022-11-10T12:11:47.945Z,25.70
2022-11-10T12:14:46.298Z,24.10
2022-11-10T12:17:36.025Z,24.20
2022-11-10T12:20:46.289Z,23.00
2022-11-10T12:23:52.465Z,22.90
2022-11-10T12:26:38.363Z,22.20
2022-11-10T12:29:29.980Z,22.90
2022-11-10T12:32:20.489Z,22.80
2022-11-10T12:35:08.688Z,22.90
2022-11-10T12:38:00.321Z,23.70
2022-11-10T12:40:51.956Z,23.30
2022-11-10T12:43:41.221Z,24.40
2022-11-10T12:46:27.765Z,23.50
2022-11-10T12:49:19.086Z,24.90
2022-11-10T12:52:17.752Z,25.30
2022-11-10T12:55:04.072Z,23.80
2022-11-10T12:57:52.417Z,22.80
2022-11-10T13:00:54.586Z,22.60
2022-11-10T13:03:54.233Z,22.40
2022-11-10T13:06:47.028Z,22.10
2022-11-10T13:09:34.459Z,22.20
2022-11-10T13:12:26.026Z,22.80
2022-11-10T13:15:32.589Z,23.10
2022-11-10T13:18:23.931Z,21.30
2022-11-10T13:21:11.718Z,20.60
2022-11-10T13:24:02.739Z,21.10
2022-11-10T13:26:49.209Z,21.90
2022-11-10T13:29:47.191Z,22.20
2022-11-10T13:32:34.465Z,22.10
2022-11-10T13:35:32.612Z,22.70
2022-11-10T13:38:37.593Z,22.40
2022-11-10T13:41:25.370Z,22.60
2022-11-10T13:44:30.796Z,22.30
2022-11-10T13:47:19.532Z,21.90
2022-11-10T13:50:26.378Z,23.30
2022-11-10T13:53:15.578Z,24.40
2022-11-10T13:56:13.837Z,24.40
2022-11-10T13:58:59.551Z,24.20
2022-11-10T14:01:45.754Z,22.80
2022-11-10T14:04:40.485Z,22.00
2022-11-10T14:07:45.804Z,21.40
2022-11-10T14:10:40.862Z,20.90
2022-11-10T14:13:56.349Z,20.10
2022-11-10T14:16:43.377Z,19.50
2022-11-10T14:19:29.550Z,18.90
2022-11-10T14:22:30.165Z,18.40
2022-11-10T14:25:23.005Z,18.00
2022-11-10T14:28:24.651Z,17.70
2022-11-10T14:31:18.123Z,17.50
2022-11-10T14:34:04.396Z,17.50
2022-11-10T14:36:53.114Z,17.50
2022-11-10T14:39:41.154Z,17.10
2022-11-10T14:42:28.735Z,16.70
2022-11-10T14:45:16.852Z,16.50
2022-11-10T14:48:03.314Z,16.20
2022-11-10T14:50:49.883Z,15.80
2022-11-10T14:53:37.878Z,15.90
2022-11-10T14:56:24.245Z,15.70
2022-11-10T14:59:11.133Z,15.50
2022-11-10T15:02:02.454Z,15.20
2022-11-10T15:04:51.091Z,15.00
2022-11-10T15:07:37.430Z,14.90
2022-11-10T15:10:26.720Z,14.70
2022-11-10T15:13:12.954Z,14.60
2022-11-10T15:16:18.717Z,14.50
2022-11-10T15:19:23.831Z,14.40
2022-11-10T15:22:13.130Z,14.30
2022-11-10T15:25:00.256Z,14.20
2022-11-10T15:27:58.671Z,14.20
2022-11-10T15:31:04.397Z,14.10
2022-11-10T15:33:57.540Z,14.00
2022-11-10T15:36:50.322Z,14.00
2022-11-10T15:39:36.786Z,13.80
2022-11-10T15:42:26.495Z,13.80
2022-11-10T15:45:13.036Z,13.70
2022-11-10T15:47:58.980Z,13.60
2022-11-10T15:50:48.713Z,13.60
2022-11-10T15:53:38.690Z,13.50
2022-11-10T15:56:25.490Z,13.50
2022-11-10T15:59:15.310Z,13.40
2022-11-10T16:02:01.621Z,13.30
2022-11-10T16:05:00.310Z,13.30
2022-11-10T16:07:47.448Z,13.30
2022-11-10T16:10:33.913Z,13.20
2022-11-10T16:13:25.391Z,13.10
2022-11-10T16:16:13.603Z,13.10
2022-11-10T16:18:59.776Z,13.00
2022-11-10T16:21:45.778Z,13.00
2022-11-10T16:24:31.787Z,13.00
2022-11-10T16:27:18.249Z,13.00
2022-11-10T16:30:06.384Z,13.00
2022-11-10T16:32:52.720Z,13.00
2022-11-10T16:35:39.393Z,13.00
2022-11-10T16:38:28.593Z,13.00
2022-11-10T16:41:15.196Z,13.00
2022-11-10T16:44:01.050Z,12.90
2022-11-10T16:46:49.750Z,13.00
2022-11-10T16:49:35.980Z,13.00
2022-11-10T16:52:22.791Z,12.90
2022-11-10T16:55:12.121Z,12.90
2022-11-10T16:57:58.485Z,12.90
2022-11-10T17:00:46.692Z,12.80
2022-11-10T17:03:36.094Z,12.70
2022-11-10T17:06:24.485Z,12.70
2022-11-10T17:09:15.049Z,12.70
2022-11-10T17:12:01.362Z,12.70
2022-11-10T17:14:47.638Z,12.60
2022-11-10T17:17:35.342Z,12.60
2022-11-10T17:20:28.937Z,12.60
2022-11-10T17:23:17.290Z,12.50
2022-11-10T17:26:03.193Z,12.50
2022-11-10T17:28:49.685Z,12.50
2022-11-10T17:31:36.174Z,12.50
2022-11-10T17:34:22.270Z,12.50
2022-11-10T17:37:11.978Z,12.50
2022-11-10T17:39:58.998Z,12.50
2022-11-10T17:42:46.813Z,12.40
2022-11-10T17:45:32.969Z,12.50
2022-11-10T17:48:22.394Z,12.40
2022-11-10T17:51:11.138Z,12.40
2022-11-10T17:53:58.876Z,12.40
2022-11-10T17:56:45.270Z,12.30
2022-11-10T17:59:31.019Z,12.30
2022-11-10T18:02:17.523Z,12.20
2022-11-10T18:05:05.244Z,12.20
2022-11-10T18:07:52.474Z,12.20
2022-11-10T18:10:46.921Z,12.10
2022-11-10T18:13:33.450Z,12.20
2022-11-10T18:16:19.533Z,12.20
2022-11-10T18:19:13.554Z,12.10
2022-11-10T18:21:59.486Z,12.00
2022-11-10T18:24:45.788Z,12.00
2022-11-10T18:27:32.226Z,11.90
2022-11-10T18:30:19.180Z,11.90
2022-11-10T18:33:12.349Z,11.90
2022-11-10T18:36:00.426Z,11.90
2022-11-10T18:38:47.046Z,11.80
2022-11-10T18:41:49.514Z,11.90
2022-11-10T18:44:37.121Z,11.80
2022-11-10T18:47:23.703Z,11.80
2022-11-10T18:50:09.723Z,11.80
2022-11-10T18:52:55.618Z,11.80
2022-11-10T18:55:45.591Z,11.80
2022-11-10T18:58:32.100Z,11.80
2022-11-10T19:01:18.577Z,11.70
2022-11-10T19:04:04.723Z,11.80
2022-11-10T19:06:51.129Z,11.70
2022-11-10T19:09:37.357Z,11.70
2022-11-10T19:12:26.502Z,11.70
2022-11-10T19:15:13.218Z,11.80
2022-11-10T19:17:59.079Z,11.80
2022-11-10T19:20:45.579Z,11.80
2022-11-10T19:23:34.973Z,11.90
2022-11-10T19:26:23.060Z,11.80
2022-11-10T19:29:09.336Z,11.90
2022-11-10T19:31:55.558Z,11.90
2022-11-10T19:34:41.965Z,11.90
2022-11-10T19:37:33.464Z,11.80
2022-11-10T19:40:21.126Z,11.90
2022-11-10T19:43:07.207Z,11.80
2022-11-10T19:45:53.388Z,11.70
2022-11-10T19:48:43.962Z,11.80
2022-11-10T19:51:30.119Z,11.80
2022-11-10T19:54:16.404Z,11.80
2022-11-10T19:57:02.606Z,11.70
2022-11-10T19:59:48.829Z,11.70
2022-11-10T20:02:44.245Z,11.70
2022-11-10T20:05:31.649Z,11.70
2022-11-10T20:08:18.014Z,11.70
2022-11-10T20:11:09.367Z,11.70
2022-11-10T20:13:57.318Z,11.80
2022-11-10T20:16:43.523Z,11.90
2022-11-10T20:19:40.703Z,11.80
2022-11-10T20:22:27.586Z,11.80
2022-11-10T20:25:14.273Z,11.80
2022-11-10T20:28:06.432Z,11.90
2022-11-10T20:30:56.553Z,11.90
2022-11-10T20:33:45.276Z,11.90
2022-11-10T20:36:35.346Z,11.90
2022-11-10T20:39:21.577Z,11.90
2022-11-10T20:42:10.365Z,11.90
2022-11-10T20:44:56.026Z,11.80
2022-11-10T20:47:42.156Z,11.80
2022-11-10T20:50:28.311Z,11.90
2022-11-10T20:53:18.694Z,11.80
2022-11-10T20:56:05.937Z,11.80
2022-11-10T20:58:52.856Z,11.90
2022-11-10T21:01:39.141Z,11.90
2022-11-10T21:04:25.982Z,11.90
2022-11-10T21:07:12.172Z,11.90
2022-11-10T21:09:58.199Z,11.90
2022-11-10T21:12:51.791Z,11.90
2022-11-10T21:15:39.479Z,11.80
2022-11-10T21:18:27.033Z,11.80
2022-11-10T21:21:21.301Z,11.70
2022-11-10T21:24:08.049Z,11.80
2022-11-10T21:26:54.163Z,11.70
2022-11-10T21:29:42.504Z,11.70
2022-11-10T21:32:29.339Z,11.70
2022-11-10T21:35:16.148Z,11.80
2022-11-10T21:38:03.015Z,11.80
2022-11-10T21:40:51.617Z,11.60
2022-11-10T21:43:41.825Z,11.60
2022-11-10T21:46:29.978Z,11.40
2022-11-10T21:49:16.753Z,11.30
2022-11-10T21:52:02.951Z,11.30
2022-11-10T21:54:48.844Z,11.20
2022-11-10T21:57:43.051Z,11.10
2022-11-10T22:00:29.270Z,11.10
2022-11-10T22:03:15.574Z,11.20
2022-11-10T22:06:04.825Z,11.20
2022-11-10T22:08:51.243Z,11.20
2022-11-10T22:11:56.417Z,11.20
2022-11-10T22:15:01.785Z,11.30
2022-11-10T22:18:06.786Z,11.20
2022-11-10T22:20:53.092Z,11.30
2022-11-10T22:23:58.042Z,11.30
2022-11-10T22:26:44.168Z,11.40
2022-11-10T22:29:32.220Z,11.40
2022-11-10T22:32:22.255Z,11.50
2022-11-10T22:35:08.607Z,11.50
2022-11-10T22:37:55.380Z,11.60
2022-11-10T22:41:00.308Z,11.60
2022-11-10T22:44:04.389Z,11.60
2022-11-10T22:46:52.265Z,11.50
2022-11-10T22:49:38.362Z,11.40
2022-11-10T22:52:24.226Z,11.50
2022-11-10T22:55:10.575Z,11.40
2022-11-10T22:57:56.653Z,11.40
2022-11-10T23:00:46.874Z,11.30
2022-11-10T23:03:40.167Z,11.30
2022-11-10T23:06:27.104Z,11.20
2022-11-10T23:09:13.207Z,11.00
2022-11-10T23:11:59.971Z,10.90
2022-11-10T23:14:46.541Z,10.80
2022-11-10T23:17:40.559Z,10.70
2022-11-10T23:20:26.557Z,10.50
2022-11-10T23:23:17.678Z,10.40
2022-11-10T23:26:05.143Z,10.40
2022-11-10T23:28:52.654Z,10.30
2022-11-10T23:31:38.556Z,10.40
2022-11-10T23:34:25.824Z,10.40
2022-11-10T23:37:11.848Z,10.40
2022-11-10T23:40:01.125Z,10.30
2022-11-10T23:42:47.292Z,10.20
2022-11-10T23:46:00.469Z,10.20
2022-11-10T23:48:39.704Z,9.90
2022-11-10T23:51:25.827Z,9.90
2022-11-10T23:54:11.838Z,9.80
2022-11-10T23:56:58.270Z,9.80
2022-11-10T23:59:44.087Z,9.70
